Time;durP1;ratioP1;P1;durP2;ratioP2;P2;SDS_P1;SDS_P2;PMS_P1;PMS_P2;Temp;Humidity;BMP_temperature;BMP_pressure;BME280_temperature;BME280_humidity;BME280_pressure;Samples;Min_cycle;Max_cycle;Signal;HPM_P1;HPM_P2
2022/04/19 00:00:55;;;;;;;2.58;1.35;;;;;;;2.30;100.00;94498.38;5062066;28;20162;-71
2022/04/19 00:03:23;;;;;;;3.22;1.08;;;;;;;2.34;100.00;94502.19;5061594;28;20699;-71
2022/04/19 00:05:49;;;;;;;1.70;1.15;;;;;;;2.34;100.00;94498.78;5045572;28;20049;-71
2022/04/19 00:08:16;;;;;;;3.15;1.30;;;;;;;2.24;100.00;94486.28;5041763;28;20053;-71
2022/04/19 00:10:44;;;;;;;4.30;1.23;;;;;;;2.33;100.00;94492.88;5046568;28;20048;-71
2022/04/19 00:13:13;;;;;;;2.15;1.02;;;;;;;2.33;100.00;94489.50;5043539;28;20044;-71
2022/04/19 00:15:41;;;;;;;2.15;1.00;;;;;;;2.32;100.00;94498.97;5044307;28;20036;-71
2022/04/19 00:18:09;;;;;;;1.80;1.10;;;;;;;2.29;100.00;94489.88;5025558;28;20053;-70
2022/04/19 00:20:39;;;;;;;1.45;0.95;;;;;;;2.28;100.00;94492.63;5042700;28;20128;-70
2022/04/19 00:23:12;;;;;;;3.75;1.27;;;;;;;2.31;100.00;94487.13;5044117;28;20045;-70
2022/04/19 00:25:40;;;;;;;1.98;1.25;;;;;;;2.34;100.00;94481.63;5044099;28;20052;-70
2022/04/19 00:28:09;;;;;;;4.30;0.90;;;;;;;2.36;100.00;94487.38;5045100;28;20087;-71
2022/04/19 00:30:36;;;;;;;1.60;0.88;;;;;;;2.33;100.00;94474.88;5044976;28;20120;-70
2022/04/19 00:33:04;;;;;;;1.92;1.25;;;;;;;2.33;100.00;94477.44;5045171;28;20129;-70
2022/04/19 00:35:31;;;;;;;1.20;0.90;;;;;;;2.32;100.00;94473.28;5047180;28;20044;-70
2022/04/19 00:37:59;;;;;;;2.22;1.05;;;;;;;2.32;100.00;94472.50;5044190;28;20064;-70
2022/04/19 00:40:26;;;;;;;1.38;0.77;;;;;;;2.21;100.00;94472.03;5060372;28;20045;-71
2022/04/19 00:42:56;;;;;;;1.60;0.88;;;;;;;2.19;100.00;94473.19;5041587;28;20499;-70
2022/04/19 00:45:24;;;;;;;1.77;0.93;;;;;;;2.16;100.00;94468.44;5042427;28;20048;-70
2022/04/19 00:47:52;;;;;;;1.52;0.93;;;;;;;2.07;100.00;94466.03;5059302;28;20508;-70
2022/04/19 00:50:22;;;;;;;3.35;1.17;;;;;;;2.08;100.00;94457.31;5062678;28;20512;-69
2022/04/19 00:52:49;;;;;;;1.88;1.20;;;;;;;2.07;100.00;94466.03;5040602;28;20464;-68
2022/04/19 00:55:18;;;;;;;1.23;0.70;;;;;;;2.02;100.00;94463.22;5041254;28;20079;-69
2022/04/19 00:57:46;;;;;;;1.55;0.95;;;;;;;2.03;100.00;94454.50;5024942;28;20053;-70
2022/04/19 01:00:15;;;;;;;1.67;1.10;;;;;;;2.06;100.00;94459.28;5041113;28;20044;-69
2022/04/19 01:03:06;;;;;;;1.63;0.93;;;;;;;1.94;100.00;94444.56;5038344;28;20053;-70
2022/04/19 01:05:35;;;;;;;1.88;1.02;;;;;;;2.00;100.00;94454.91;5041932;28;20504;-70
2022/04/19 01:08:03;;;;;;;1.20;0.88;;;;;;;1.89;100.00;94437.41;5058287;28;20076;-70
2022/04/19 01:10:35;;;;;;;1.55;1.00;;;;;;;1.95;100.00;94452.09;5041109;28;20052;-70
2022/04/19 01:13:17;;;;;;;2.22;1.13;;;;;;;1.95;100.00;94446.97;5039075;28;20040;-70
2022/04/19 01:15:55;;;;;;;2.10;1.20;;;;;;;1.95;100.00;94457.22;5039370;28;20215;-70
2022/04/19 01:18:24;;;;;;;4.80;1.17;;;;;;;1.91;100.00;94450.88;5043292;28;20580;-70
2022/04/19 01:20:59;;;;;;;1.85;1.10;;;;;;;1.86;100.00;94443.72;5057559;28;20045;-70
2022/04/19 01:23:29;;;;;;;2.05;1.05;;;;;;;1.90;100.00;94439.78;5057901;28;20048;-70
2022/04/19 01:25:58;;;;;;;1.55;1.05;;;;;;;1.79;100.00;94439.53;5041402;28;20460;-70
2022/04/19 01:28:27;;;;;;;2.03;1.13;;;;;;;1.85;100.00;94441.34;5054376;28;20451;-70
2022/04/19 01:30:54;;;;;;;3.22;1.30;;;;;;;1.77;100.00;94433.78;5042681;28;20041;-69
2022/04/19 01:33:24;;;;;;;2.65;1.40;;;;;;;1.91;100.00;94448.31;5057938;28;20047;-69
2022/04/19 01:35:53;;;;;;;2.25;1.45;;;;;;;1.85;100.00;94451.59;5058316;28;20711;-70
2022/04/19 01:38:21;;;;;;;2.35;1.48;;;;;;;1.92;100.00;94450.69;5048992;28;20080;-70
2022/04/19 01:40:48;;;;;;;2.38;1.48;;;;;;;1.95;100.00;94441.81;5064532;28;20051;-70
2022/04/19 01:43:32;;;;;;;2.10;1.33;;;;;;;1.90;100.00;94446.72;5042041;28;20527;-70
2022/04/19 01:45:59;;;;;;;1.92;1.25;;;;;;;1.89;100.00;94437.41;5050574;28;20048;-71
2022/04/19 01:48:27;;;;;;;2.47;1.50;;;;;;;1.91;100.00;94450.88;5064827;28;20098;-70
2022/04/19 01:50:54;;;;;;;2.47;1.45;;;;;;;1.94;100.00;94449.72;5024323;28;20059;-71
2022/04/19 01:53:21;;;;;;;2.95;1.67;;;;;;;1.93;100.00;94448.91;5045888;28;20528;-69
2022/04/19 01:55:51;;;;;;;2.58;1.75;;;;;;;1.87;100.00;94439.38;5045219;28;20049;-69
2022/04/19 01:58:37;;;;;;;2.45;2.08;;;;;;;2.00;100.00;94449.75;5046452;28;20195;-69
2022/04/19 02:01:06;;;;;;;2.03;1.27;;;;;;;1.96;100.00;94448.53;5045206;28;20098;-69
2022/04/19 02:03:34;;;;;;;2.67;1.30;;;;;;;1.92;100.00;94442.19;5045649;28;20103;-69
2022/04/19 02:06:11;;;;;;;3.72;1.90;;;;;;;1.93;100.00;94443.78;5061342;28;20060;-69
2022/04/19 02:08:39;;;;;;;2.70;1.70;;;;;;;1.91;100.00;94441.41;5045329;28;20524;-69
2022/04/19 02:11:12;;;;;;;2.83;1.70;;;;;;;1.88;100.00;94435.84;5044451;28;20075;-69
2022/04/19 02:13:40;;;;;;;3.13;1.77;;;;;;;1.82;100.00;94441.69;5059749;28;20041;-69
2022/04/19 02:16:21;;;;;;;2.55;1.90;;;;;;;1.87;100.00;94440.19;5061862;28;20152;-69
2022/04/19 02:18:51;;;;;;;6.40;2.20;;;;;;;1.83;100.00;94441.53;5044840;28;20076;-69
2022/04/19 02:21:18;;;;;;;2.53;1.75;;;;;;;1.93;100.00;94448.91;5044579;28;20139;-69
2022/04/19 02:23:45;;;;;;;3.45;2.20;;;;;;;1.92;100.00;94442.19;5046896;28;20045;-69
2022/04/19 02:26:12;;;;;;;3.13;2.10;;;;;;;1.78;100.00;94414.81;5044446;28;20048;-70
2022/04/19 02:28:39;;;;;;;2.78;1.60;;;;;;;1.92;100.00;94442.97;5061657;28;20440;-69
2022/04/19 02:31:13;;;;;;;4.05;1.92;;;;;;;1.90;100.00;94428.75;5045125;28;20045;-69
2022/04/19 02:33:47;;;;;;;2.97;2.13;;;;;;;1.94;100.00;94435.06;5044693;28;20525;-68
2022/04/19 02:36:17;;;;;;;3.25;2.22;;;;;;;1.93;100.00;94441.22;5061336;28;20507;-70
2022/04/19 02:38:45;;;;;;;3.00;1.67;;;;;;;1.89;100.00;94432.28;5044415;28;20447;-69
2022/04/19 02:41:13;;;;;;;7.18;2.55;;;;;;;1.91;100.00;94436.25;5044094;28;20205;-69
2022/04/19 02:43:44;;;;;;;6.25;2.22;;;;;;;1.90;100.00;94439.78;5044762;28;20099;-69
2022/04/19 02:46:11;;;;;;;3.58;2.05;;;;;;;1.82;100.00;94442.53;5043573;28;20459;-69
2022/04/19 02:48:41;;;;;;;5.85;2.22;;;;;;;1.86;100.00;94448.06;5043850;28;20057;-69
2022/04/19 02:51:10;;;;;;;4.15;1.85;;;;;;;1.88;100.00;94446.13;5043372;28;20429;-69
2022/04/19 02:53:37;;;;;;;5.25;2.28;;;;;;;1.87;100.00;94439.38;5043982;28;20497;-69
2022/04/19 02:56:04;;;;;;;3.53;2.22;;;;;;;1.91;100.00;94445.75;5039569;28;20088;-69
2022/04/19 02:58:31;;;;;;;3.40;2.38;;;;;;;1.89;100.00;94443.38;5044224;28;20135;-69
2022/04/19 03:00:59;;;;;;;6.13;2.85;;;;;;;1.82;100.00;94442.53;5044388;28;20033;-69
2022/04/19 03:03:29;;;;;;;3.80;2.38;;;;;;;1.90;100.00;94450.06;5043686;28;20060;-69
2022/04/19 03:05:57;;;;;;;4.88;2.55;;;;;;;1.87;100.00;94460.75;5043362;28;20045;-69
2022/04/19 03:08:26;;;;;;;8.10;2.65;;;;;;;1.88;100.00;94456.38;5043317;28;20503;-69
2022/04/19 03:10:55;;;;;;;3.97;2.20;;;;;;;1.89;100.00;94463.09;5042561;28;20529;-69
2022/04/19 03:13:22;;;;;;;4.60;2.63;;;;;;;1.84;100.00;94465.44;5040338;28;20084;-69
2022/04/19 03:15:49;;;;;;;3.67;2.30;;;;;;;1.84;100.00;94460.31;5044357;28;20060;-68
2022/04/19 03:18:16;;;;;;;5.85;1.90;;;;;;;1.93;100.00;94466.91;5043194;28;20140;-69
2022/04/19 03:20:45;;;;;;;3.65;2.60;;;;;;;1.97;100.00;94460.41;5058969;28;20048;-70
2022/04/19 03:29:08;;;;;;;5.38;3.22;;;;;;;1.81;100.00;94460.66;5039706;28;20069;-69
2022/04/19 03:31:35;;;;;;;7.70;2.63;;;;;;;1.82;100.00;94472.53;5042347;28;20060;-69
2022/04/19 03:34:06;;;;;;;4.65;2.58;;;;;;;1.78;100.00;94471.31;5048050;28;20099;-70
2022/04/19 03:36:33;;;;;;;5.82;3.17;;;;;;;1.61;100.00;94461.28;5058068;28;20049;-69
2022/04/19 03:39:00;;;;;;;4.15;2.75;;;;;;;1.64;100.00;94476.34;5043217;28;20152;-70
2022/04/19 03:41:27;;;;;;;5.57;2.95;;;;;;;1.58;100.00;94473.69;5041883;28;20052;-70
2022/04/19 03:43:55;;;;;;;5.40;3.53;;;;;;;1.40;100.00;94463.88;5039744;28;20045;-70
2022/04/19 03:46:22;;;;;;;4.85;3.20;;;;;;;1.53;100.00;94476.81;5036221;28;20528;-70
2022/04/19 03:48:49;;;;;;;5.47;3.17;;;;;;;1.47;100.00;94465.50;5033973;28;20049;-70
2022/04/19 03:51:16;;;;;;;6.38;3.45;;;;;;;1.58;100.00;94477.06;5040489;28;20057;-70
2022/04/19 03:53:46;;;;;;;5.57;3.10;;;;;;;1.59;100.00;94483.78;5024659;28;20461;-69
2022/04/19 03:56:14;;;;;;;7.32;2.92;;;;;;;1.53;100.00;94474.25;5044188;28;20143;-70
2022/04/19 03:58:42;;;;;;;5.88;3.33;;;;;;;1.58;100.00;94487.31;5046531;28;20044;-70
2022/04/19 04:01:12;;;;;;;18.13;7.28;;;;;;;1.59;100.00;94483.78;5032147;28;20048;-70
2022/04/19 04:03:41;;;;;;;17.42;7.03;;;;;;;1.54;100.00;94483.53;5042635;28;20432;-69
2022/04/19 04:06:08;;;;;;;18.50;8.55;;;;;;;1.57;100.00;94484.94;5038862;28;20060;-69
2022/04/19 04:08:35;;;;;;;8.38;4.97;;;;;;;1.61;100.00;94491.31;5041187;28;20056;-69
2022/04/19 04:11:02;;;;;;;6.50;4.38;;;;;;;1.58;100.00;94489.88;5040767;28;20075;-69
2022/04/19 04:13:33;;;;;;;13.15;6.47;;;;;;;1.59;100.00;94491.50;5033622;28;20048;-69
2022/04/19 04:16:00;;;;;;;20.90;9.32;;;;;;;1.52;100.00;94482.94;5051464;28;20484;-69
2022/04/19 04:18:31;;;;;;;20.33;10.93;;;;;;;1.56;100.00;94489.28;5051844;28;20536;-69
2022/04/19 04:20:59;;;;;;;18.17;9.02;;;;;;;1.57;100.00;94490.06;5044681;28;20044;-68
2022/04/19 04:23:26;;;;;;;10.13;6.03;;;;;;;1.59;100.00;94494.06;5059560;28;20842;-69
2022/04/19 04:25:59;;;;;;;9.50;5.88;;;;;;;1.64;100.00;94499.44;5026579;28;20053;-69
2022/04/19 04:28:27;;;;;;;6.78;3.78;;;;;;;1.61;100.00;94494.66;5042717;28;20044;-69
2022/04/19 04:30:55;;;;;;;6.28;3.38;;;;;;;1.71;100.00;94504.63;5040997;28;20041;-69
2022/04/19 04:33:22;;;;;;;19.40;9.07;;;;;;;1.67;100.00;94496.50;5040813;28;20060;-70
2022/04/19 04:35:49;;;;;;;9.77;5.20;;;;;;;1.77;100.00;94508.25;5059379;28;20049;-70
2022/04/19 04:38:17;;;;;;;37.63;12.90;;;;;;;1.80;100.00;94505.28;5041398;28;20600;-70
2022/04/19 04:40:44;;;;;;;12.35;5.32;;;;;;;1.87;100.00;94511.28;5042172;28;20509;-70
2022/04/19 04:43:12;;;;;;;8.43;4.40;;;;;;;1.96;100.00;94510.16;5027626;28;20113;-71
2022/04/19 04:45:39;;;;;;;21.80;7.93;;;;;;;2.05;100.00;94514.22;5063292;28;20056;-70
2022/04/19 04:50:56;;;;;;;19.33;8.38;;;;;;;2.13;100.00;94489.38;5040940;28;20041;-69
2022/04/19 04:53:23;;;;;;;8.00;4.70;;;;;;;2.41;100.00;94517.63;5050335;28;20045;-71
2022/04/19 04:56:04;;;;;;;7.40;4.07;;;;;;;2.49;100.00;94518.28;5057363;28;20152;-70
2022/04/19 04:58:30;;;;;;;29.30;9.70;;;;;;;2.66;100.00;94523.91;5040051;28;20564;-69
2022/04/19 05:00:57;;;;;;;13.10;5.15;;;;;;;2.82;100.00;94527.16;5025566;28;20048;-70
2022/04/19 05:03:25;;;;;;;14.70;10.25;;;;;;;3.03;100.00;94531.44;5039691;28;20202;-71
2022/04/19 05:05:53;;;;;;;8.93;3.90;;;;;;;3.23;100.00;94527.16;5040621;28;20087;-70
2022/04/19 05:08:20;;;;;;;5.38;3.15;;;;;;;3.40;100.00;94521.66;5040574;28;20124;-70
2022/04/19 05:10:47;;;;;;;6.47;3.20;;;;;;;3.56;100.00;94535.97;5045136;28;20049;-70
2022/04/19 05:13:19;;;;;;;6.28;3.22;;;;;;;3.54;100.00;94518.13;5047651;28;20076;-71
2022/04/19 05:15:46;;;;;;;4.50;2.83;;;;;;;3.76;100.00;94520.56;5062859;28;20524;-70
2022/04/19 05:18:14;;;;;;;5.18;2.85;;;;;;;3.75;100.00;94511.25;5068517;28;20053;-69
2022/04/19 05:20:45;;;;;;;6.85;3.97;;;;;;;3.86;100.00;94517.63;5062003;28;20045;-70
2022/04/19 05:23:12;;;;;;;3.90;2.50;;;;;;;4.00;100.00;94532.09;5059137;28;20896;-70
2022/04/19 05:25:41;;;;;;;5.40;3.55;;;;;;;4.11;100.00;94535.88;5046850;28;20045;-70
2022/04/19 05:28:08;;;;;;;11.73;4.28;;;;;;;4.24;100.00;94528.13;5046508;28;20087;-70
2022/04/19 05:30:35;;;;;;;7.05;4.93;;;;;;;4.36;100.00;94525.78;5029862;28;20060;-70
2022/04/19 05:33:03;;;;;;;5.95;3.60;;;;;;;4.53;100.00;94536.47;5051086;28;20044;-70
2022/04/19 05:35:29;;;;;;;7.22;4.05;;;;;;;4.71;100.00;94533.25;5047331;28;20075;-70
2022/04/19 05:37:58;;;;;;;11.27;7.65;;;;;;;4.88;100.00;94538.78;5049751;28;20044;-70
2022/04/19 05:40:28;;;;;;;10.60;5.70;;;;;;;4.95;100.00;94539.53;5063434;28;20424;-70
2022/04/19 05:42:55;;;;;;;4.82;3.17;;;;;;;5.06;100.00;94541.53;5068850;28;20397;-70
2022/04/19 05:45:22;;;;;;;5.55;3.08;;;;;;;5.03;100.00;94547.09;5061115;28;20159;-70
2022/04/19 05:47:49;;;;;;;6.00;4.32;;;;;;;4.97;100.00;94532.41;5062230;28;20524;-69
2022/04/19 05:50:16;;;;;;;5.68;3.70;;;;;;;4.92;99.01;94550.28;5036157;28;20053;-69
2022/04/19 05:52:43;;;;;;;6.50;3.65;;;;;;;4.85;100.00;94549.50;5052706;28;20640;-70
2022/04/19 05:55:13;;;;;;;10.35;4.32;;;;;;;4.52;97.49;94550.34;5061607;28;20114;-70
2022/04/19 05:57:40;;;;;;;7.63;4.35;;;;;;;4.47;97.98;94552.75;5047498;28;20048;-70
2022/04/19 06:00:08;;;;;;;5.72;3.10;;;;;;;4.27;98.59;94558.69;5044375;28;20102;-70
2022/04/19 06:05:34;;;;;;;5.32;3.92;;;;;;;4.15;100.00;94560.25;5047470;28;20107;-70
2022/04/19 06:08:01;;;;;;;5.07;2.97;;;;;;;4.00;100.00;94557.88;5042167;28;20433;-69
2022/04/19 06:10:28;;;;;;;6.18;2.90;;;;;;;3.98;100.00;94559.81;5064372;28;20052;-69
2022/04/19 06:12:56;;;;;;;3.83;2.58;;;;;;;3.99;100.00;94557.06;5043875;28;20053;-70
2022/04/19 06:15:23;;;;;;;16.50;3.03;;;;;;;4.18;100.00;94565.03;5046003;28;20049;-70
2022/04/19 06:17:50;;;;;;;9.70;4.70;;;;;;;4.39;100.00;94562.25;5029365;28;20080;-69
2022/04/19 06:20:40;;;;;;;9.48;4.63;;;;;;;4.56;100.00;94559.28;5039003;28;20372;-70
2022/04/19 06:23:09;;;;;;;5.45;3.05;;;;;;;4.61;100.00;94554.31;5043081;28;20040;-70
2022/04/19 06:25:38;;;;;;;4.35;2.45;;;;;;;4.69;100.00;94561.84;5045825;28;20049;-69
2022/04/19 06:28:05;;;;;;;6.22;2.30;;;;;;;4.88;100.00;94565.38;5046096;28;20045;-69
2022/04/19 06:30:49;;;;;;;4.82;3.00;;;;;;;5.18;100.00;94559.75;5045867;28;20053;-69
2022/04/19 06:33:17;;;;;;;4.85;2.63;;;;;;;5.02;100.00;94555.81;5057243;28;20083;-70
2022/04/19 06:35:44;;;;;;;4.18;2.63;;;;;;;4.97;100.00;94563.38;5047280;28;20145;-69
2022/04/19 06:38:11;;;;;;;4.63;2.65;;;;;;;4.97;100.00;94563.38;5043263;28;20059;-70
2022/04/19 06:40:38;;;;;;;4.65;3.08;;;;;;;4.98;100.00;94565.75;5059457;28;20889;-69
2022/04/19 06:43:06;;;;;;;6.95;3.63;;;;;;;4.78;100.00;94573.53;5049325;28;20159;-68
2022/04/19 06:45:51;;;;;;;4.47;2.90;;;;;;;4.72;100.00;94566.59;5045239;28;20593;-69
2022/04/19 06:48:26;;;;;;;5.63;3.00;;;;;;;4.81;100.00;94574.13;5044976;28;20052;-68
2022/04/19 06:50:53;;;;;;;4.53;2.80;;;;;;;4.91;100.00;94569.34;5043493;28;20049;-67
2022/04/19 06:53:42;;;;;;;3.45;2.13;;;;;;;4.85;100.00;94562.41;5041326;28;20483;-68
2022/04/19 06:56:36;;;;;;;4.45;2.65;;;;;;;4.74;100.00;94567.19;5065707;28;20053;-68
2022/04/19 06:59:03;;;;;;;4.85;3.20;;;;;;;4.68;100.00;94559.44;5047043;28;20472;-68
2022/04/19 07:01:37;;;;;;;7.10;3.60;;;;;;;4.36;100.00;94560.06;5053595;28;20124;-68
2022/04/19 07:04:23;;;;;;;2.55;1.50;;;;;;;4.17;100.00;94568.59;5043336;28;20142;-68
2022/04/19 07:06:52;;;;;;;4.57;3.28;;;;;;;3.98;100.00;94570.13;5043035;28;20060;-68
2022/04/19 07:09:20;;;;;;;6.35;2.65;;;;;;;3.98;100.00;94576.09;5046223;28;20144;-68
2022/04/19 07:11:47;;;;;;;6.57;2.63;;;;;;;3.90;100.00;94578.84;5043301;28;20055;-68
2022/04/19 07:14:20;;;;;;;3.70;2.28;;;;;;;3.72;100.00;94570.91;5026474;28;20059;-68
2022/04/19 07:17:13;;;;;;;5.32;3.47;;;;;;;3.78;100.00;94585.56;5042836;28;20061;-68
2022/04/19 07:28:11;;;;;;;6.22;3.78;;;;;;;3.59;100.00;94577.59;5041178;28;20068;-68
2022/04/19 07:30:42;;;;;;;4.15;2.70;;;;;;;3.59;100.00;94584.53;5037607;28;20053;-68
2022/04/19 07:33:10;;;;;;;6.03;3.35;;;;;;;3.56;100.00;94583.13;5042507;28;20067;-69
2022/04/19 07:35:40;;;;;;;5.68;3.60;;;;;;;3.64;100.00;94582.97;5041178;28;20142;-69
2022/04/19 07:38:07;;;;;;;7.30;4.85;;;;;;;3.64;100.00;94585.53;5025458;28;20131;-69
2022/04/19 07:40:59;;;;;;;4.85;3.20;;;;;;;3.72;100.00;94583.78;5039707;28;20551;-69
2022/04/19 07:43:26;;;;;;;3.83;2.45;;;;;;;3.79;100.00;94584.59;5056944;28;20584;-69
2022/04/19 07:45:53;;;;;;;4.60;3.28;;;;;;;3.84;100.00;94561.63;5044987;28;20072;-68
2022/04/19 07:48:20;;;;;;;7.18;3.75;;;;;;;4.20;100.00;94578.50;5042816;28;20059;-68
2022/04/19 07:50:47;;;;;;;6.57;3.00;;;;;;;4.24;100.00;94582.28;5040712;28;20077;-69
2022/04/19 07:53:14;;;;;;;7.40;2.88;;;;;;;4.14;100.00;94579.28;5034267;28;20061;-68
2022/04/19 07:55:41;;;;;;;5.32;3.20;;;;;;;3.88;100.00;94580.84;5036105;28;20045;-69
2022/04/19 07:58:08;;;;;;;7.93;3.65;;;;;;;3.87;100.00;94584.41;5041109;28;20060;-69
2022/04/19 08:00:36;;;;;;;6.15;3.10;;;;;;;3.90;100.00;94578.84;5037625;28;20568;-70
2022/04/19 08:03:04;;;;;;;2.20;1.40;;;;;;;3.94;100.00;94589.56;5035896;28;20043;-70
2022/04/19 08:05:32;;;;;;;2.33;1.40;;;;;;;3.71;100.00;94569.28;5056679;28;20049;-71
2022/04/19 08:07:59;;;;;;;3.40;2.10;;;;;;;3.99;100.00;94588.00;5039809;28;20054;-70
2022/04/19 08:10:26;;;;;;;5.68;3.33;;;;;;;3.98;100.00;94591.56;5042240;28;20160;-70
2022/04/19 08:12:53;;;;;;;6.63;3.60;;;;;;;4.00;100.00;94584.44;5040213;28;20102;-70
2022/04/19 08:15:21;;;;;;;3.88;2.22;;;;;;;4.02;100.00;94592.75;5039454;28;20132;-71
2022/04/19 08:17:48;;;;;;;3.60;2.63;;;;;;;4.02;100.00;94566.97;5034995;28;20083;-70
2022/04/19 08:20:16;;;;;;;6.82;4.00;;;;;;;4.20;100.00;94605.06;5059025;28;20056;-70
2022/04/19 08:22:44;;;;;;;3.42;1.90;;;;;;;4.22;100.00;94607.47;5026930;28;20796;-70
2022/04/19 08:25:18;;;;;;;3.33;1.92;;;;;;;4.47;100.00;94604.31;5026249;28;20059;-70
2022/04/19 08:27:48;;;;;;;3.92;2.15;;;;;;;4.45;100.00;94590.81;5043684;28;20052;-70
2022/04/19 08:30:16;;;;;;;3.17;1.98;;;;;;;4.34;100.00;94595.59;5042902;28;20053;-70
2022/04/19 08:32:45;;;;;;;5.88;3.22;;;;;;;4.60;100.00;94594.00;5041718;28;20476;-71
2022/04/19 08:35:14;;;;;;;3.47;2.33;;;;;;;4.64;100.00;94600.34;5034888;28;20587;-72
2022/04/19 08:37:42;;;;;;;2.97;1.67;;;;;;;4.68;100.00;94598.97;5041219;28;20574;-71
2022/04/19 08:40:11;;;;;;;4.45;2.33;;;;;;;4.76;100.00;94601.31;5038717;28;20087;-71
2022/04/19 08:42:40;;;;;;;3.20;1.98;;;;;;;5.00;100.00;94593.94;5054582;28;20536;-72
2022/04/19 08:45:09;;;;;;;5.68;2.40;;;;;;;5.07;100.00;94589.56;5041953;28;20079;-71
2022/04/19 08:47:38;;;;;;;2.65;1.65;;;;;;;5.12;100.00;94586.38;5040971;28;20056;-70
2022/04/19 08:50:13;;;;;;;3.75;2.13;;;;;;;5.45;100.00;94586.25;5043971;28;20045;-71
2022/04/19 08:52:41;;;;;;;1.65;1.20;;;;;;;5.51;100.00;94585.47;5042615;28;20041;-71
2022/04/19 08:57:56;;;;;;;4.10;2.13;;;;;;;6.39;96.89;94578.84;5044872;28;20044;-70
2022/04/19 09:00:24;;;;;;;3.20;1.45;;;;;;;6.55;93.25;94585.25;5045034;28;20430;-70
2022/04/19 09:02:53;;;;;;;2.05;1.50;;;;;;;6.63;89.86;94571.28;5045360;28;20037;-71
2022/04/19 09:05:26;;;;;;;1.23;0.90;;;;;;;6.62;89.08;94586.00;5042411;28;20051;-70
2022/04/19 09:07:55;;;;;;;2.43;1.73;;;;;;;6.49;88.54;94575.75;5043128;28;20063;-70
2022/04/19 09:10:40;;;;;;;2.42;1.75;;;;;;;6.62;85.32;94575.66;5058344;28;20060;-70
2022/04/19 09:13:09;;;;;;;;;;;;;;;6.82;87.10;94577.28;5040040;28;20034;-70
2022/04/19 09:15:38;;;;;;;4.10;2.88;;;;;;;6.55;85.96;94580.09;5040836;28;19932;-70
2022/04/19 09:18:33;;;;;;;4.72;2.78;;;;;;;6.24;84.85;94589.47;5044066;28;20049;-70
2022/04/19 09:21:02;;;;;;;3.38;1.75;;;;;;;6.04;85.92;94579.25;5044595;28;20060;-69
2022/04/19 09:23:30;;;;;;;2.83;1.92;;;;;;;6.22;86.86;94575.97;5041672;28;20163;-70
2022/04/19 09:26:05;;;;;;;4.20;2.80;;;;;;;6.45;89.38;94566.84;5042518;28;20148;-70
2022/04/19 09:28:34;;;;;;;2.92;2.05;;;;;;;6.66;87.43;94566.47;5038168;28;20075;-70
2022/04/19 09:31:09;;;;;;;3.20;2.40;;;;;;;7.11;84.41;94573.19;5040724;28;20204;-69
2022/04/19 09:33:36;;;;;;;7.15;3.20;;;;;;;7.25;84.68;94574.66;5038805;28;20045;-69
2022/04/19 09:36:04;;;;;;;3.92;2.47;;;;;;;7.35;82.47;94568.97;5039055;28;20138;-70
2022/04/19 09:38:40;;;;;;;4.68;3.75;;;;;;;7.42;82.92;94574.09;5041656;28;20483;-71
2022/04/19 09:41:14;;;;;;;4.18;2.45;;;;;;;7.41;81.84;94569.91;5042426;28;20045;-70
2022/04/19 09:44:13;;;;;;;8.68;2.92;;;;;;;7.75;79.32;94571.09;5042313;28;20049;-70
2022/04/19 09:47:00;;;;;;;4.35;2.72;;;;;;;7.89;77.92;94568.34;5055358;28;20052;-71
2022/04/19 09:49:50;;;;;;;6.72;4.00;;;;;;;8.11;78.12;94574.59;5042665;28;20505;-71
2022/04/19 09:52:23;;;;;;;4.90;3.35;;;;;;;8.53;73.45;94564.19;5042495;28;20413;-70
2022/04/19 09:55:19;;;;;;;4.57;2.95;;;;;;;8.78;70.15;94571.00;5044419;28;20147;-70
2022/04/19 09:57:47;;;;;;;4.70;2.30;;;;;;;8.54;66.40;94568.41;5033777;28;20144;-70
2022/04/19 10:00:17;;;;;;;4.32;2.72;;;;;;;8.51;57.92;94568.06;5047849;28;20041;-70
2022/04/19 10:08:19;;;;;;;4.80;2.95;;;;;;;8.87;57.57;94564.44;5047784;28;20040;-70
2022/04/19 10:10:51;;;;;;;4.80;3.40;;;;;;;9.15;63.00;94560.38;5054881;28;20071;-70
2022/04/19 10:13:20;;;;;;;3.42;2.40;;;;;;;8.94;59.85;94557.34;5047499;28;20037;-70
2022/04/19 10:15:48;;;;;;;4.90;2.35;;;;;;;8.27;62.87;94559.41;5045447;28;20051;-70
2022/04/19 10:18:14;;;;;;;4.15;3.13;;;;;;;7.56;64.83;94565.16;5046236;28;20111;-69
2022/04/19 10:21:09;;;;;;;4.85;2.60;;;;;;;7.10;63.59;94570.84;5047076;28;20102;-70
2022/04/19 10:23:41;;;;;;;4.70;2.90;;;;;;;6.97;68.76;94567.38;5046122;28;20532;-69
2022/04/19 10:26:22;;;;;;;7.07;3.80;;;;;;;6.68;70.42;94569.63;5052148;28;20045;-69
2022/04/19 10:28:53;;;;;;;6.78;4.00;;;;;;;6.49;72.14;94562.81;5045529;28;20103;-70
2022/04/19 10:31:30;;;;;;;13.95;5.68;;;;;;;6.29;67.43;94556.00;5049201;28;20045;-70
2022/04/19 10:34:05;;;;;;;5.35;3.55;;;;;;;6.31;68.12;94556.59;5062716;28;20037;-70
2022/04/19 10:36:39;;;;;;;5.70;3.72;;;;;;;6.47;69.37;94551.91;5047826;28;20509;-70
2022/04/19 10:39:15;;;;;;;6.00;3.90;;;;;;;6.58;67.86;94553.78;5052020;28;20040;-70
2022/04/19 10:41:52;;;;;;;6.22;4.05;;;;;;;7.01;64.59;94553.00;5047667;28;20736;-70
2022/04/19 10:44:31;;;;;;;5.35;3.45;;;;;;;7.33;61.80;94549.47;5045461;28;20041;-70
2022/04/19 10:47:14;;;;;;;4.03;2.83;;;;;;;7.96;62.50;94548.25;5038447;28;20048;-71
2022/04/19 10:49:49;;;;;;;6.68;2.97;;;;;;;8.73;64.73;94544.91;5062174;28;20048;-71
2022/04/19 10:52:43;;;;;;;5.47;3.50;;;;;;;9.12;59.19;94550.44;5049437;28;20545;-71
2022/04/19 10:55:17;;;;;;;5.72;3.28;;;;;;;9.28;55.27;94549.72;5045267;28;20418;-71
2022/04/19 11:00:48;;;;;;;10.80;6.78;;;;;;;9.69;52.44;94550.53;5046902;28;20052;-71
2022/04/19 11:03:46;;;;;;;4.55;3.22;;;;;;;10.18;50.81;94538.91;5042702;28;20049;-69
2022/04/19 11:06:31;;;;;;;4.65;3.50;;;;;;;10.36;49.82;94533.47;5047566;28;20053;-71
2022/04/19 11:09:22;;;;;;;5.38;2.88;;;;;;;10.36;49.11;94528.28;5048141;28;20073;-71
2022/04/19 11:12:06;;;;;;;6.20;4.25;;;;;;;11.13;50.73;94532.00;5048043;28;20099;-71
2022/04/19 11:14:40;;;;;;;29.45;18.88;;;;;;;11.96;46.33;94529.28;5043471;28;20052;-72
2022/04/19 11:17:26;;;;;;;10.00;6.20;;;;;;;12.34;43.73;94530.16;5048888;28;20044;-71
2022/04/19 11:20:07;;;;;;;6.72;4.03;;;;;;;11.44;43.15;94527.94;5062029;28;21017;-71
2022/04/19 11:22:52;;;;;;;4.93;3.22;;;;;;;11.61;42.86;94514.84;5050213;28;20554;-70
2022/04/19 11:25:42;;;;;;;5.75;3.45;;;;;;;11.91;42.95;94534.47;5056204;28;20054;-71
2022/04/19 11:28:09;;;;;;;7.22;4.75;;;;;;;11.48;42.61;94528.22;5048120;28;20037;-70
2022/04/19 11:31:03;;;;;;;5.05;3.63;;;;;;;11.73;42.83;94516.50;5049097;28;20072;-70
2022/04/19 11:33:33;;;;;;;30.23;11.30;;;;;;;11.59;42.03;94521.31;5047326;28;20057;-70
2022/04/19 11:36:09;;;;;;;6.80;3.45;;;;;;;11.37;42.55;94519.50;5047319;28;20135;-70
2022/04/19 11:38:42;;;;;;;8.13;5.70;;;;;;;10.71;47.14;94519.41;5047411;28;20052;-69
2022/04/19 11:46:44;;;;;;;10.30;5.32;;;;;;;9.97;56.32;94515.13;5047173;28;20047;-70
2022/04/19 11:49:29;;;;;;;9.43;5.35;;;;;;;10.39;53.43;94511.38;5047677;28;20509;-70
2022/04/19 11:51:58;;;;;;;5.95;4.18;;;;;;;10.92;48.70;94506.69;5048445;28;20056;-70
2022/04/19 11:54:27;;;;;;;5.60;3.08;;;;;;;11.51;45.61;94511.31;5049920;28;20528;-70
2022/04/19 11:56:56;;;;;;;6.03;3.45;;;;;;;11.75;43.66;94506.59;5046819;28;20103;-70
2022/04/19 11:59:30;;;;;;;11.48;4.10;;;;;;;12.37;42.98;94497.50;5048566;28;20122;-70
2022/04/19 12:02:00;;;;;;;5.72;3.63;;;;;;;13.07;49.46;94495.63;5047580;28;20068;-71
2022/04/19 12:04:27;;;;;;;3.63;2.75;;;;;;;13.33;48.19;94493.91;5047944;28;20056;-69
2022/04/19 12:07:03;;;;;;;4.93;3.17;;;;;;;13.44;46.13;94505.22;5047128;28;20045;-69
2022/04/19 12:09:31;;;;;;;5.18;2.88;;;;;;;14.00;42.18;94490.69;5050531;28;20055;-69
2022/04/19 12:12:03;;;;;;;4.20;3.05;;;;;;;14.33;41.21;94494.63;5048022;28;20056;-70
2022/04/19 12:14:31;;;;;;;4.72;3.20;;;;;;;14.11;43.35;94487.81;5043650;28;20072;-69
2022/04/19 12:17:06;;;;;;;5.13;2.90;;;;;;;13.52;42.68;94496.06;5048760;28;20048;-69
2022/04/19 12:19:41;;;;;;;4.78;3.28;;;;;;;12.85;43.77;94510.66;5049336;28;20059;-69
2022/04/19 12:22:19;;;;;;;;;;;;;;;13.01;43.87;94507.06;5048076;28;20122;-69
2022/04/19 12:24:53;;;;;;;5.93;3.03;;;;;;;13.13;42.99;94505.06;5046396;28;19921;-70
2022/04/19 12:27:25;;;;;;;3.50;2.50;;;;;;;13.22;41.10;94496.69;5048239;28;20045;-70
2022/04/19 12:30:01;;;;;;;3.50;2.58;;;;;;;12.93;41.52;94499.72;5047783;28;20037;-69